createdAt,value
2018-02-04T00:00:14.423Z,2.2
2018-02-04T00:01:15.883Z,2.2
2018-02-04T00:02:17.279Z,2.2
2018-02-04T00:03:18.706Z,2.1
2018-02-04T00:04:20.061Z,2.1
2018-02-04T00:05:21.457Z,2.1
2018-02-04T00:06:22.929Z,2.1
2018-02-04T00:07:24.412Z,2.2
2018-02-04T00:08:25.782Z,2.1
2018-02-04T00:09:27.172Z,2.1
2018-02-04T00:10:28.572Z,2.1
2018-02-04T00:11:29.944Z,2.2
2018-02-04T00:12:31.404Z,2.2
2018-02-04T00:13:32.780Z,2.2
2018-02-04T00:14:34.281Z,2.1
2018-02-04T00:15:35.731Z,2.1
2018-02-04T00:16:37.197Z,2.2
2018-02-04T00:17:38.614Z,2.2
2018-02-04T00:18:40.005Z,2.2
2018-02-04T00:19:41.492Z,2.2
2018-02-04T00:20:42.930Z,2.2
2018-02-04T00:21:44.403Z,2.2
2018-02-04T00:22:45.852Z,2.2
2018-02-04T00:23:47.270Z,2.3
2018-02-04T00:24:48.682Z,2.2
2018-02-04T00:25:50.194Z,2.2
2018-02-04T00:26:51.608Z,2.2
2018-02-04T00:27:53.044Z,2.2
2018-02-04T00:28:54.533Z,2.2
2018-02-04T00:29:55.963Z,2.2
2018-02-04T00:30:57.795Z,2.2
2018-02-04T00:31:59.169Z,2.2
2018-02-04T00:33:00.592Z,2.3
2018-02-04T00:34:02.045Z,2.4
2018-02-04T00:35:03.487Z,2.3
2018-02-04T00:36:04.914Z,2.4
2018-02-04T00:37:06.325Z,2.4
2018-02-04T00:38:07.825Z,2.3
2018-02-04T00:39:09.277Z,2.4
2018-02-04T00:40:10.654Z,2.4
2018-02-04T00:41:12.315Z,2.4
2018-02-04T00:42:13.811Z,2.3
2018-02-04T00:43:15.478Z,2.4
2018-02-04T00:44:17.011Z,2.4
2018-02-04T00:45:18.465Z,2.4
2018-02-04T00:46:19.881Z,2.4
2018-02-04T00:47:21.630Z,2.4
2018-02-04T00:48:23.345Z,2.4
2018-02-04T00:49:24.711Z,2.4
2018-02-04T00:50:26.218Z,2.3
2018-02-04T00:51:29.366Z,2.4
2018-02-04T00:52:30.745Z,2.5
2018-02-04T00:53:32.208Z,2.6
2018-02-04T00:54:33.767Z,2.4
2018-02-04T00:55:35.193Z,2.5
2018-02-04T00:56:36.607Z,2.5
2018-02-04T00:57:38.116Z,2.6
2018-02-04T00:58:39.699Z,2.6
2018-02-04T00:59:41.257Z,2.6
2018-02-04T01:00:42.646Z,2.6
2018-02-04T01:01:44.018Z,2.6
2018-02-04T01:02:45.401Z,2.6
2018-02-04T01:03:46.776Z,2.5
2018-02-04T01:04:48.278Z,2.5
2018-02-04T01:05:49.804Z,2.5
2018-02-04T01:06:51.449Z,2.6
2018-02-04T01:07:52.860Z,2.7
2018-02-04T01:08:54.472Z,2.7
2018-02-04T01:09:56.011Z,2.8
2018-02-04T01:10:57.757Z,2.8
2018-02-04T01:11:59.192Z,2.8
2018-02-04T01:13:00.619Z,2.8
2018-02-04T01:14:01.993Z,2.8
2018-02-04T01:15:03.486Z,2.7
2018-02-04T01:16:04.906Z,2.8
2018-02-04T01:17:06.439Z,2.8
2018-02-04T01:18:08.127Z,2.8
2018-02-04T01:19:09.577Z,2.8
2018-02-04T01:20:11.343Z,2.8
2018-02-04T01:21:12.793Z,2.7
2018-02-04T01:22:14.314Z,2.6
2018-02-04T01:23:15.874Z,2.6
2018-02-04T01:24:17.323Z,2.5
2018-02-04T01:25:18.902Z,2.6
2018-02-04T01:26:20.398Z,2.3
2018-02-04T01:27:21.806Z,2.2
2018-02-04T01:28:23.265Z,2.2
2018-02-04T01:29:24.956Z,2.1
2018-02-04T01:30:26.424Z,2.1
2018-02-04T01:31:28.094Z,2.0
2018-02-04T01:32:29.461Z,2.1
2018-02-04T01:33:30.911Z,2.2
2018-02-04T01:34:32.285Z,2.1
2018-02-04T01:35:33.833Z,2.1
2018-02-04T01:36:35.261Z,2.0
2018-02-04T01:37:36.709Z,2.0
2018-02-04T01:38:38.133Z,2.1
2018-02-04T01:39:39.561Z,2.0
2018-02-04T01:40:41.103Z,2.0
2018-02-04T01:41:42.478Z,2.0
2018-02-04T01:42:43.943Z,2.0
2018-02-04T01:43:45.343Z,2.0
2018-02-04T01:44:46.743Z,2.1
2018-02-04T01:45:48.259Z,2.2
2018-02-04T01:46:49.827Z,2.1
2018-02-04T01:47:51.441Z,2.0
2018-02-04T01:48:53.555Z,2.1
2018-02-04T01:49:54.999Z,2.0
2018-02-04T01:50:56.561Z,2.0
2018-02-04T01:51:58.054Z,2.0
2018-02-04T01:52:59.516Z,2.0
2018-02-04T01:54:00.916Z,1.9
2018-02-04T01:55:02.300Z,2.0
2018-02-04T01:56:03.734Z,1.9
2018-02-04T01:57:05.236Z,2.0
2018-02-04T01:58:06.606Z,1.9
2018-02-04T01:59:08.207Z,1.9
2018-02-04T02:00:09.812Z,2.0
2018-02-04T02:01:11.524Z,1.9
2018-02-04T02:02:13.152Z,2.0
2018-02-04T02:03:14.632Z,1.9
2018-02-04T02:04:16.099Z,2.0
2018-02-04T02:05:17.659Z,1.9
2018-02-04T02:06:19.243Z,1.9
2018-02-04T02:07:20.859Z,2.0
2018-02-04T02:08:22.596Z,1.9
2018-02-04T02:09:23.993Z,1.9
2018-02-04T02:10:25.376Z,1.9
2018-02-04T02:11:26.749Z,1.8
2018-02-04T02:12:28.240Z,1.8
2018-02-04T02:13:29.713Z,2.0
2018-02-04T02:14:31.270Z,2.0
2018-02-04T02:15:32.702Z,1.8
2018-02-04T02:16:34.221Z,1.9
2018-02-04T02:17:35.630Z,1.8
2018-02-04T02:18:37.218Z,1.7
2018-02-04T02:19:38.665Z,1.8
2018-02-04T02:20:40.201Z,1.7
2018-02-04T02:21:41.604Z,1.7
2018-02-04T02:22:43.091Z,1.7
2018-02-04T02:23:44.545Z,1.9
2018-02-04T02:24:45.996Z,1.9
2018-02-04T02:25:47.368Z,1.8
2018-02-04T02:26:48.854Z,1.8
2018-02-04T02:27:50.312Z,1.8
2018-02-04T02:28:51.722Z,1.7
2018-02-04T02:29:53.243Z,1.8
2018-02-04T02:30:54.624Z,1.7
2018-02-04T02:31:56.106Z,1.8
2018-02-04T02:32:57.495Z,1.6
2018-02-04T02:33:58.969Z,1.6
2018-02-04T02:35:00.639Z,1.7
2018-02-04T02:36:01.984Z,1.8
2018-02-04T02:37:03.396Z,1.8
2018-02-04T02:38:04.766Z,1.8
2018-02-04T02:39:06.250Z,1.8
2018-02-04T02:40:07.642Z,1.7
2018-02-04T02:41:09.137Z,1.8
2018-02-04T02:42:10.592Z,1.8
2018-02-04T02:43:11.977Z,1.8
2018-02-04T02:44:13.687Z,1.8
2018-02-04T02:45:15.191Z,1.8
2018-02-04T02:46:16.636Z,1.8
2018-02-04T02:47:17.968Z,1.9
2018-02-04T02:48:19.346Z,1.8
2018-02-04T02:49:20.747Z,1.8
2018-02-04T02:50:22.268Z,1.8
2018-02-04T02:51:23.685Z,1.9
2018-02-04T02:52:25.110Z,1.9
2018-02-04T02:53:26.488Z,1.9
2018-02-04T02:54:27.903Z,1.8
2018-02-04T02:55:29.394Z,1.8
2018-02-04T02:56:30.757Z,1.8
2018-02-04T02:57:32.137Z,1.8
2018-02-04T02:58:33.541Z,1.9
2018-02-04T02:59:35.052Z,1.8
2018-02-04T03:00:36.623Z,1.9
2018-02-04T03:01:38.003Z,1.9
2018-02-04T03:02:39.455Z,1.9
2018-02-04T03:03:40.892Z,1.8
2018-02-04T03:04:42.286Z,1.8
2018-02-04T03:05:43.773Z,1.7
2018-02-04T03:06:45.287Z,1.8
2018-02-04T03:07:46.773Z,1.7
2018-02-04T03:08:48.166Z,1.8
2018-02-04T03:09:49.643Z,1.7
2018-02-04T03:10:51.497Z,1.8
2018-02-04T03:11:52.891Z,1.8
2018-02-04T03:12:54.313Z,1.8
2018-02-04T03:13:56.051Z,1.8
2018-02-04T03:14:57.512Z,1.7
2018-02-04T03:15:58.990Z,1.7
2018-02-04T03:17:00.640Z,1.7
2018-02-04T03:18:02.390Z,1.8
2018-02-04T03:19:03.849Z,1.8
2018-02-04T03:20:05.239Z,1.8
2018-02-04T03:21:06.705Z,1.8
2018-02-04T03:22:08.338Z,1.8
2018-02-04T03:23:10.625Z,1.8
2018-02-04T03:24:12.118Z,1.9
2018-02-04T03:25:13.821Z,2.0
2018-02-04T03:26:15.382Z,1.9
2018-02-04T03:27:16.805Z,2.0
2018-02-04T03:28:18.341Z,1.9
2018-02-04T03:29:20.005Z,2.0
2018-02-04T03:30:21.378Z,2.0
2018-02-04T03:31:22.877Z,1.9
2018-02-04T03:32:24.513Z,2.0
2018-02-04T03:33:25.976Z,1.9
2018-02-04T03:34:27.419Z,2.0
2018-02-04T03:35:28.811Z,1.9
2018-02-04T03:36:30.463Z,1.9
2018-02-04T03:37:31.991Z,2.0
2018-02-04T03:38:33.709Z,1.9
2018-02-04T03:39:35.365Z,1.9
2018-02-04T03:40:36.869Z,1.8
2018-02-04T03:41:38.680Z,1.7
2018-02-04T03:42:40.114Z,1.7
2018-02-04T03:43:41.617Z,1.7
2018-02-04T03:44:43.132Z,1.7
2018-02-04T03:45:44.565Z,1.7
2018-02-04T03:46:46.490Z,1.6
2018-02-04T03:47:47.942Z,1.7
2018-02-04T03:48:49.585Z,1.7
2018-02-04T03:49:51.147Z,1.7
2018-02-04T03:50:52.543Z,1.6
2018-02-04T03:51:53.990Z,1.7
2018-02-04T03:52:55.418Z,1.6
2018-02-04T03:53:57.149Z,1.5
2018-02-04T03:54:58.596Z,1.5
2018-02-04T03:55:59.962Z,1.5
2018-02-04T03:57:01.465Z,1.5
2018-02-04T03:58:02.902Z,1.6
2018-02-04T03:59:04.302Z,1.5
2018-02-04T04:00:05.667Z,1.6
2018-02-04T04:01:07.056Z,1.6
2018-02-04T04:02:08.597Z,1.6
2018-02-04T04:03:10.019Z,1.5
2018-02-04T04:04:11.426Z,1.5
2018-02-04T04:05:12.817Z,1.5
2018-02-04T04:06:14.213Z,1.5
2018-02-04T04:07:15.732Z,1.5
2018-02-04T04:08:17.276Z,1.5
2018-02-04T04:09:18.729Z,1.5
2018-02-04T04:10:20.143Z,1.5
2018-02-04T04:11:21.631Z,1.5
2018-02-04T04:12:23.021Z,1.5
2018-02-04T04:13:24.477Z,1.4
2018-02-04T04:14:25.852Z,1.5
2018-02-04T04:15:27.389Z,1.6
2018-02-04T04:16:28.829Z,1.6
2018-02-04T04:17:30.198Z,1.7
2018-02-04T04:18:31.568Z,1.7
2018-02-04T04:19:32.978Z,1.7
2018-02-04T04:20:34.453Z,1.7
2018-02-04T04:21:35.890Z,1.8
2018-02-04T04:22:37.281Z,1.8
2018-02-04T04:23:38.755Z,1.8
2018-02-04T04:24:40.124Z,1.8
2018-02-04T04:25:41.563Z,1.7
2018-02-04T04:26:42.941Z,1.8
2018-02-04T04:27:44.371Z,1.8
2018-02-04T04:28:45.768Z,1.7
2018-02-04T04:29:47.144Z,1.7
2018-02-04T04:30:48.537Z,1.7
2018-02-04T04:31:50.152Z,1.7
2018-02-04T04:32:51.633Z,1.6
2018-02-04T04:33:53.112Z,1.6
2018-02-04T04:34:54.645Z,1.7
2018-02-04T04:35:56.020Z,1.7
2018-02-04T04:36:57.532Z,1.7
2018-02-04T04:37:58.973Z,1.7
2018-02-04T04:39:00.418Z,1.7
2018-02-04T04:40:01.812Z,1.7
2018-02-04T04:41:03.323Z,1.7
2018-02-04T04:42:04.845Z,1.6
2018-02-04T04:43:06.278Z,1.6
2018-02-04T04:44:07.656Z,1.5
2018-02-04T04:45:09.022Z,1.6
2018-02-04T04:46:10.429Z,1.6
2018-02-04T04:47:11.803Z,1.6
2018-02-04T04:48:13.256Z,1.6
2018-02-04T04:49:14.639Z,1.7
2018-02-04T04:50:16.108Z,1.6
2018-02-04T04:51:17.481Z,1.7
2018-02-04T04:52:18.847Z,1.7
2018-02-04T04:53:20.243Z,1.6
2018-02-04T04:54:21.732Z,1.6
2018-02-04T04:55:23.140Z,1.5
2018-02-04T04:56:24.538Z,1.6
2018-02-04T04:57:25.918Z,1.6
2018-02-04T04:58:27.291Z,1.6
2018-02-04T04:59:28.809Z,1.6
2018-02-04T05:00:30.246Z,1.8
2018-02-04T05:01:31.599Z,1.7
2018-02-04T05:02:33.077Z,1.8
2018-02-04T05:03:34.524Z,1.8
2018-02-04T05:04:36.065Z,1.7
2018-02-04T05:05:37.442Z,1.7
2018-02-04T05:06:38.831Z,1.6
2018-02-04T05:07:40.215Z,1.6
2018-02-04T05:08:41.634Z,1.6
2018-02-04T05:09:43.081Z,1.7
2018-02-04T05:10:44.459Z,1.6
2018-02-04T05:11:45.863Z,1.6
2018-02-04T05:12:47.226Z,1.6
2018-02-04T05:13:48.637Z,1.7
2018-02-04T05:14:50.090Z,1.6
2018-02-04T05:15:51.620Z,1.6
2018-02-04T05:16:53.067Z,1.7
2018-02-04T05:17:54.585Z,1.6
2018-02-04T05:18:56.094Z,1.6
2018-02-04T05:19:57.469Z,1.7
2018-02-04T05:20:58.898Z,1.6
2018-02-04T05:22:00.332Z,1.6
2018-02-04T05:23:01.734Z,1.6
2018-02-04T05:24:03.400Z,1.7
2018-02-04T05:25:04.838Z,1.6
2018-02-04T05:26:06.397Z,1.6
2018-02-04T05:27:07.815Z,1.6
2018-02-04T05:28:09.463Z,1.6
2018-02-04T05:29:10.835Z,1.6
2018-02-04T05:30:12.294Z,1.5
2018-02-04T05:31:13.766Z,1.5
2018-02-04T05:32:15.433Z,1.6
2018-02-04T05:33:17.464Z,1.5
2018-02-04T05:34:19.308Z,1.4
2018-02-04T05:35:20.748Z,1.4
2018-02-04T05:36:22.129Z,1.4
2018-02-04T05:37:23.629Z,1.5
2018-02-04T05:38:25.097Z,1.5
2018-02-04T05:39:26.622Z,1.5
2018-02-04T05:40:28.039Z,1.3
2018-02-04T05:41:29.500Z,1.4
2018-02-04T05:42:30.929Z,1.5
2018-02-04T05:43:32.332Z,1.5
2018-02-04T05:44:33.720Z,1.5
2018-02-04T05:45:35.169Z,1.5
2018-02-04T05:46:36.588Z,1.6
2018-02-04T05:47:38.057Z,1.6
2018-02-04T05:48:39.437Z,1.6
2018-02-04T05:49:40.966Z,1.6
2018-02-04T05:50:42.399Z,1.5
2018-02-04T05:51:43.931Z,1.5
2018-02-04T05:52:45.355Z,1.6
2018-02-04T05:53:46.797Z,1.6
2018-02-04T05:54:48.317Z,1.7
2018-02-04T05:55:49.678Z,1.6
2018-02-04T05:56:51.112Z,1.6
2018-02-04T05:57:52.597Z,1.5
2018-02-04T05:58:54.043Z,1.6
2018-02-04T05:59:55.533Z,1.6
2018-02-04T06:00:57.341Z,1.5
2018-02-04T06:01:58.738Z,1.5
2018-02-04T06:03:00.270Z,1.5
2018-02-04T06:04:02.326Z,1.5
2018-02-04T06:05:04.312Z,1.5
2018-02-04T06:06:05.723Z,1.6
2018-02-04T06:07:07.096Z,1.6
2018-02-04T06:08:08.498Z,1.5
2018-02-04T06:09:09.884Z,1.4
2018-02-04T06:10:11.299Z,1.5
2018-02-04T06:11:12.774Z,1.5
2018-02-04T06:12:14.217Z,1.5
2018-02-04T06:13:16.269Z,1.6
2018-02-04T06:14:18.324Z,1.6
2018-02-04T06:15:20.398Z,1.6
2018-02-04T06:16:22.496Z,1.7
2018-02-04T06:17:24.538Z,1.6
2018-02-04T06:18:25.982Z,1.8
2018-02-04T06:19:27.447Z,1.7
2018-02-04T06:20:29.016Z,1.8
2018-02-04T06:21:30.436Z,1.8
2018-02-04T06:22:31.813Z,1.8
2018-02-04T06:23:33.226Z,1.8
2018-02-04T06:24:34.629Z,1.7
2018-02-04T06:25:36.125Z,1.8
2018-02-04T06:26:37.526Z,1.9
2018-02-04T06:27:39.006Z,1.8
2018-02-04T06:28:40.402Z,1.8
2018-02-04T06:29:41.808Z,1.8
2018-02-04T06:30:43.223Z,1.8
2018-02-04T06:31:44.632Z,1.8
2018-02-04T06:32:46.178Z,1.9
2018-02-04T06:33:47.577Z,1.8
2018-02-04T06:34:49.048Z,1.9
2018-02-04T06:35:50.464Z,2.0
2018-02-04T06:36:51.851Z,1.9
2018-02-04T06:37:53.268Z,1.9
2018-02-04T06:38:54.710Z,2.0
2018-02-04T06:39:56.091Z,2.0
2018-02-04T06:40:57.504Z,1.9
2018-02-04T06:41:58.900Z,1.9
2018-02-04T06:43:00.393Z,2.0
2018-02-04T06:44:01.763Z,2.0
2018-02-04T06:45:03.211Z,1.9
2018-02-04T06:46:04.781Z,2.0
2018-02-04T06:47:06.202Z,2.0
2018-02-04T06:48:07.586Z,2.0
2018-02-04T06:49:09.035Z,2.0
2018-02-04T06:50:10.411Z,2.0
2018-02-04T06:51:12.508Z,2.1
2018-02-04T06:52:13.861Z,2.0
2018-02-04T06:53:15.235Z,2.0
2018-02-04T06:54:16.612Z,2.1
2018-02-04T06:55:18.035Z,2.1
2018-02-04T06:56:19.526Z,2.0
2018-02-04T06:57:20.972Z,2.1
2018-02-04T06:58:22.519Z,2.1
2018-02-04T06:59:23.981Z,2.1
2018-02-04T07:00:25.410Z,2.0
2018-02-04T07:01:26.824Z,2.0
2018-02-04T07:02:28.256Z,2.0
2018-02-04T07:03:29.667Z,2.0
2018-02-04T07:04:31.096Z,2.1
2018-02-04T07:05:32.496Z,2.1
2018-02-04T07:06:34.032Z,2.0
2018-02-04T07:07:35.553Z,2.0
2018-02-04T07:08:36.995Z,2.0
2018-02-04T07:09:38.443Z,2.1
2018-02-04T07:10:39.842Z,2.0
2018-02-04T07:11:41.236Z,2.1
2018-02-04T07:12:42.688Z,2.2
2018-02-04T07:13:44.019Z,2.1
2018-02-04T07:14:45.423Z,2.2
2018-02-04T07:15:46.790Z,2.2
2018-02-04T07:16:48.161Z,2.2
2018-02-04T07:17:49.657Z,2.2
2018-02-04T07:18:51.053Z,2.2
2018-02-04T07:19:52.466Z,2.2
2018-02-04T07:20:53.864Z,2.2
2018-02-04T07:21:55.238Z,2.2
2018-02-04T07:22:56.627Z,2.2
2018-02-04T07:23:58.042Z,2.2
2018-02-04T07:24:59.453Z,2.3
2018-02-04T07:26:00.868Z,2.2
2018-02-04T07:27:02.260Z,2.3
2018-02-04T07:28:03.781Z,2.2
2018-02-04T07:29:05.268Z,2.2
2018-02-04T07:30:06.637Z,2.3
2018-02-04T07:31:08.197Z,2.2
2018-02-04T07:32:09.629Z,2.3
2018-02-04T07:33:11.028Z,2.3
2018-02-04T07:34:12.426Z,2.3
2018-02-04T07:35:13.875Z,2.2
2018-02-04T07:36:15.262Z,2.2
2018-02-04T07:37:16.689Z,2.2
2018-02-04T07:38:18.100Z,2.2
2018-02-04T07:39:19.621Z,2.1
2018-02-04T07:40:21.070Z,2.2
2018-02-04T07:41:22.448Z,2.2
2018-02-04T07:42:23.887Z,2.2
2018-02-04T07:43:25.272Z,2.2
2018-02-04T07:44:26.787Z,2.2
2018-02-04T07:45:28.393Z,2.2
2018-02-04T07:46:29.775Z,2.2
2018-02-04T07:47:31.186Z,2.3
2018-02-04T07:48:32.565Z,2.3
2018-02-04T07:49:34.025Z,2.3
2018-02-04T07:50:35.451Z,2.3
2018-02-04T07:51:36.932Z,2.4
2018-02-04T07:52:38.713Z,2.4
2018-02-04T07:53:40.205Z,2.5
2018-02-04T07:54:41.592Z,2.6
2018-02-04T07:55:42.983Z,2.5
2018-02-04T07:56:44.457Z,2.5
2018-02-04T07:57:46.321Z,2.6
2018-02-04T07:58:47.808Z,2.6
2018-02-04T07:59:49.230Z,2.8
2018-02-04T08:00:50.608Z,2.8
2018-02-04T08:01:51.994Z,2.7
2018-02-04T08:02:53.426Z,2.8
2018-02-04T08:03:54.831Z,2.9
2018-02-04T08:04:56.328Z,2.9
2018-02-04T08:05:57.698Z,3.0
2018-02-04T08:06:59.075Z,2.9
2018-02-04T08:08:00.591Z,3.1
2018-02-04T08:09:02.007Z,3.1
2018-02-04T08:10:03.666Z,3.2
2018-02-04T08:11:05.049Z,3.3
2018-02-04T08:12:06.527Z,3.3
2018-02-04T08:13:09.337Z,3.3
2018-02-04T08:14:10.757Z,3.4
2018-02-04T08:15:12.144Z,3.5
2018-02-04T08:16:13.585Z,3.6
2018-02-04T08:17:15.092Z,3.5
2018-02-04T08:18:16.556Z,3.6
2018-02-04T08:19:18.003Z,3.6
2018-02-04T08:20:19.369Z,3.4
2018-02-04T08:21:20.756Z,3.5
2018-02-04T08:22:22.472Z,3.6
2018-02-04T08:23:23.897Z,3.5
2018-02-04T08:24:25.282Z,3.7
2018-02-04T08:25:26.656Z,3.7
2018-02-04T08:26:29.861Z,3.7
2018-02-04T08:27:31.294Z,3.8
2018-02-04T08:28:32.803Z,3.9
2018-02-04T08:29:34.223Z,3.9
2018-02-04T08:30:35.616Z,3.9
2018-02-04T08:31:37.119Z,3.9
2018-02-04T08:32:39.129Z,4.0
2018-02-04T08:33:40.617Z,4.0
2018-02-04T08:34:45.921Z,4.0
2018-02-04T08:35:47.371Z,4.0
2018-02-04T08:36:48.887Z,4.0
2018-02-04T08:37:50.268Z,3.8
2018-02-04T08:38:51.642Z,3.7
2018-02-04T08:39:53.726Z,3.6
2018-02-04T08:40:54.956Z,3.6
2018-02-04T08:41:56.450Z,3.6
2018-02-04T08:42:57.880Z,3.6
2018-02-04T08:43:59.253Z,3.6
2018-02-04T08:45:00.823Z,3.4
2018-02-04T08:46:02.284Z,3.6
2018-02-04T08:47:03.777Z,3.4
2018-02-04T08:48:05.308Z,3.4
2018-02-04T08:49:06.682Z,3.3
2018-02-04T08:50:08.206Z,3.2
2018-02-04T08:51:09.590Z,3.3
2018-02-04T08:52:10.981Z,3.3
2018-02-04T08:53:12.377Z,3.3
2018-02-04T08:54:13.834Z,3.3
2018-02-04T08:55:15.244Z,3.2
2018-02-04T08:56:16.655Z,3.2
2018-02-04T08:57:18.059Z,3.2
2018-02-04T08:58:19.512Z,3.0
2018-02-04T08:59:20.984Z,3.0
2018-02-04T09:00:22.355Z,2.9
2018-02-04T09:01:24.498Z,2.9
2018-02-04T09:02:25.901Z,2.8
2018-02-04T09:03:27.347Z,2.7
2018-02-04T09:04:28.796Z,2.5
2018-02-04T09:05:30.265Z,2.7
2018-02-04T09:06:31.632Z,2.5
2018-02-04T09:07:33.214Z,2.6
2018-02-04T09:08:34.606Z,2.6
2018-02-04T09:09:36.539Z,2.6
2018-02-04T09:10:37.997Z,2.5
2018-02-04T09:11:39.367Z,2.5
2018-02-04T09:12:40.766Z,2.6
2018-02-04T09:13:42.142Z,2.5
2018-02-04T09:14:43.668Z,2.5
2018-02-04T09:15:45.055Z,2.5
2018-02-04T09:16:47.394Z,2.5
2018-02-04T09:17:48.711Z,2.5
2018-02-04T09:18:50.265Z,2.5
2018-02-04T09:19:51.615Z,2.6
2018-02-04T09:20:53.024Z,2.4
2018-02-04T09:21:54.469Z,2.5
2018-02-04T09:22:55.919Z,2.4
2018-02-04T09:23:57.860Z,2.4
2018-02-04T09:24:59.299Z,2.4
2018-02-04T09:26:04.718Z,2.4
2018-02-04T09:27:06.114Z,2.4
2018-02-04T09:28:07.538Z,2.6
2018-02-04T09:29:08.925Z,2.5
2018-02-04T09:30:10.358Z,2.5
2018-02-04T09:31:11.809Z,2.5
2018-02-04T09:32:13.262Z,2.6
2018-02-04T09:33:14.757Z,2.6
2018-02-04T09:34:16.222Z,2.4
2018-02-04T09:35:17.691Z,2.5
2018-02-04T09:36:19.080Z,2.5
2018-02-04T09:37:20.465Z,2.6
2018-02-04T09:38:21.933Z,2.6
2018-02-04T09:39:23.414Z,2.6
2018-02-04T09:40:24.826Z,2.6
2018-02-04T09:41:26.333Z,2.6
2018-02-04T09:42:27.752Z,2.7
2018-02-04T09:43:29.203Z,2.8
2018-02-04T09:44:30.644Z,2.8
2018-02-04T09:45:32.050Z,2.9
2018-02-04T09:46:33.489Z,2.8
2018-02-04T09:47:34.897Z,2.9
2018-02-04T09:48:36.399Z,2.9
2018-02-04T09:49:37.894Z,2.9
2018-02-04T09:50:39.285Z,3.0
2018-02-04T09:51:40.711Z,3.1
2018-02-04T09:52:42.111Z,3.2
2018-02-04T09:53:43.528Z,3.1
2018-02-04T09:54:44.915Z,3.1
2018-02-04T09:55:46.333Z,2.9
2018-02-04T09:56:47.767Z,3.1
2018-02-04T09:57:49.197Z,3.3
2018-02-04T09:58:50.601Z,3.3
2018-02-04T09:59:51.998Z,3.1
2018-02-04T10:00:53.433Z,3.2
2018-02-04T10:01:54.866Z,3.2
2018-02-04T10:02:56.304Z,3.2
2018-02-04T10:03:57.715Z,3.5
2018-02-04T10:04:59.106Z,3.7
2018-02-04T10:06:00.518Z,4.2
2018-02-04T10:07:01.944Z,4.5
2018-02-04T10:08:03.412Z,4.8
2018-02-04T10:09:04.827Z,5.3
2018-02-04T10:10:06.201Z,6.0
2018-02-04T10:11:07.634Z,6.1
2018-02-04T10:12:09.046Z,6.9
2018-02-04T10:13:10.465Z,7.4
2018-02-04T10:14:11.901Z,7.5
2018-02-04T10:15:13.327Z,7.6
2018-02-04T10:16:14.733Z,7.4
2018-02-04T10:17:16.155Z,7.4
2018-02-04T10:18:17.599Z,7.8
2018-02-04T10:19:19.053Z,8.6
2018-02-04T10:20:20.493Z,9.3
2018-02-04T10:21:21.963Z,9.7
2018-02-04T10:22:23.432Z,10.1
2018-02-04T10:23:24.870Z,10.5
2018-02-04T10:24:26.294Z,10.8
2018-02-04T10:25:27.749Z,11.1
2018-02-04T10:26:29.114Z,11.3
2018-02-04T10:27:30.495Z,11.4
2018-02-04T10:28:31.935Z,11.4
2018-02-04T10:29:33.342Z,11.5
2018-02-04T10:30:34.738Z,11.9
2018-02-04T10:31:36.129Z,12.0
2018-02-04T10:32:37.553Z,12.4
2018-02-04T10:33:39.001Z,12.6
2018-02-04T10:34:40.445Z,12.5
2018-02-04T10:35:41.865Z,12.2
2018-02-04T10:36:43.278Z,12.2
2018-02-04T10:37:44.748Z,12.4
2018-02-04T10:38:46.133Z,12.6
2018-02-04T10:39:47.528Z,12.8
2018-02-04T10:40:48.960Z,12.0
2018-02-04T10:41:50.374Z,12.1
2018-02-04T10:42:51.771Z,12.3
2018-02-04T10:43:53.183Z,12.7
2018-02-04T10:44:54.606Z,12.9
2018-02-04T10:45:56.016Z,12.6
2018-02-04T10:46:57.453Z,13.0
2018-02-04T10:47:58.905Z,13.1
2018-02-04T10:49:00.341Z,13.0
2018-02-04T10:50:01.759Z,12.9
2018-02-04T10:51:03.187Z,12.7
2018-02-04T10:52:04.578Z,12.4
2018-02-04T10:53:06.018Z,12.5
2018-02-04T10:54:07.439Z,12.7
2018-02-04T10:55:08.944Z,12.8
2018-02-04T10:56:10.374Z,13.0
2018-02-04T10:57:11.759Z,12.7
2018-02-04T10:58:13.216Z,12.2
2018-02-04T10:59:14.607Z,11.9
2018-02-04T11:00:16.053Z,11.3
2018-02-04T11:01:17.490Z,11.3
2018-02-04T11:02:18.935Z,11.3
2018-02-04T11:03:20.385Z,10.6
2018-02-04T11:04:21.787Z,10.4
2018-02-04T11:05:23.228Z,10.3
2018-02-04T11:06:24.634Z,10.3
2018-02-04T11:07:26.076Z,10.3
2018-02-04T11:08:27.537Z,10.1
2018-02-04T11:09:28.907Z,9.9
2018-02-04T11:10:30.321Z,9.4
2018-02-04T11:11:31.711Z,9.0
2018-02-04T11:12:33.101Z,8.9
2018-02-04T11:13:34.482Z,8.8
2018-02-04T11:14:35.930Z,8.2
2018-02-04T11:15:37.315Z,8.1
2018-02-04T11:16:38.871Z,7.6
2018-02-04T11:17:40.323Z,7.5
2018-02-04T11:18:41.805Z,7.7
2018-02-04T11:19:43.214Z,7.7
2018-02-04T11:20:44.639Z,7.6
2018-02-04T11:21:46.091Z,7.4
2018-02-04T11:22:47.519Z,7.3
2018-02-04T11:23:48.957Z,7.2
2018-02-04T11:24:50.434Z,7.2
2018-02-04T11:25:51.906Z,7.0
2018-02-04T11:26:53.306Z,6.8
2018-02-04T11:27:54.752Z,6.7
2018-02-04T11:28:56.153Z,6.5
2018-02-04T11:29:57.542Z,6.4
2018-02-04T11:30:58.987Z,6.3
2018-02-04T11:32:00.387Z,6.1
2018-02-04T11:33:01.806Z,6.1
2018-02-04T11:34:03.278Z,6.0
2018-02-04T11:35:04.667Z,6.0
2018-02-04T11:36:06.085Z,6.1
2018-02-04T11:37:07.494Z,6.2
2018-02-04T11:38:08.962Z,6.1
2018-02-04T11:39:10.393Z,6.1
2018-02-04T11:40:11.845Z,6.3
2018-02-04T11:41:13.237Z,6.3
2018-02-04T11:42:14.696Z,6.2
2018-02-04T11:43:16.131Z,6.2
2018-02-04T11:44:17.545Z,7.0
2018-02-04T11:45:19.048Z,7.0
2018-02-04T11:46:20.512Z,7.6
2018-02-04T11:47:22.014Z,8.4
2018-02-04T11:48:23.488Z,9.3
2018-02-04T11:49:24.944Z,9.8
2018-02-04T11:50:26.363Z,10.2
2018-02-04T11:51:27.829Z,10.3
2018-02-04T11:52:29.247Z,9.8
2018-02-04T11:53:30.640Z,9.1
2018-02-04T11:54:32.037Z,8.6
2018-02-04T11:55:33.446Z,8.2
2018-02-04T11:56:34.861Z,8.1
2018-02-04T11:57:36.365Z,8.6
2018-02-04T11:58:37.764Z,8.4
2018-02-04T11:59:39.275Z,7.7
2018-02-04T12:00:40.666Z,7.4
2018-02-04T12:01:42.079Z,7.2
2018-02-04T12:02:43.492Z,7.1
2018-02-04T12:03:44.925Z,6.9
2018-02-04T12:04:46.376Z,6.6
2018-02-04T12:05:47.771Z,6.7
2018-02-04T12:06:49.224Z,6.6
2018-02-04T12:07:50.679Z,6.5
2018-02-04T12:08:52.065Z,6.5
2018-02-04T12:09:53.534Z,6.4
2018-02-04T12:10:54.928Z,6.3
2018-02-04T12:11:56.314Z,6.1
2018-02-04T12:12:57.772Z,5.7
2018-02-04T12:13:59.298Z,5.7
2018-02-04T12:15:00.744Z,5.4
2018-02-04T12:16:02.143Z,5.3
2018-02-04T12:17:03.614Z,5.2
2018-02-04T12:18:04.998Z,4.9
2018-02-04T12:19:06.387Z,5.0
2018-02-04T12:20:07.808Z,4.7
2018-02-04T12:21:09.234Z,4.4
2018-02-04T12:22:10.654Z,4.6
2018-02-04T12:23:12.039Z,4.4
2018-02-04T12:24:13.517Z,4.3
2018-02-04T12:25:14.941Z,4.1
2018-02-04T12:26:16.383Z,4.2
2018-02-04T12:27:18.339Z,4.3
2018-02-04T12:28:19.728Z,4.3
2018-02-04T12:29:21.124Z,4.4
2018-02-04T12:30:22.892Z,4.3
2018-02-04T12:31:25.590Z,4.2
2018-02-04T12:32:27.005Z,4.2
2018-02-04T12:33:28.439Z,4.1
2018-02-04T12:34:29.843Z,4.2
2018-02-04T12:35:31.279Z,4.1
2018-02-04T12:36:32.724Z,3.9
2018-02-04T12:37:34.190Z,4.0
2018-02-04T12:38:35.582Z,4.0
2018-02-04T12:39:36.971Z,3.9
2018-02-04T12:40:38.418Z,3.8
2018-02-04T12:41:39.850Z,3.9
2018-02-04T12:42:41.285Z,3.9
2018-02-04T12:43:42.693Z,3.7
2018-02-04T12:44:44.184Z,3.8
2018-02-04T12:45:45.551Z,3.6
2018-02-04T12:46:46.927Z,3.5
2018-02-04T12:47:48.331Z,3.6
2018-02-04T12:48:49.755Z,3.5
2018-02-04T12:49:51.187Z,3.3
2018-02-04T12:50:52.596Z,3.2
2018-02-04T12:51:54.000Z,3.3
2018-02-04T12:52:55.440Z,3.4
2018-02-04T12:53:56.836Z,3.4
2018-02-04T12:54:58.235Z,3.3
2018-02-04T12:55:59.694Z,3.5
2018-02-04T12:57:01.328Z,3.5
2018-02-04T12:58:03.060Z,3.5
2018-02-04T12:59:04.445Z,3.6
2018-02-04T13:00:06.009Z,3.4
2018-02-04T13:01:07.461Z,3.3
2018-02-04T13:02:08.882Z,3.3
2018-02-04T13:03:10.256Z,3.3
2018-02-04T13:04:11.641Z,3.2
2018-02-04T13:05:13.228Z,3.2
2018-02-04T13:06:14.900Z,3.3
2018-02-04T13:07:16.454Z,3.1
2018-02-04T13:08:18.002Z,3.1
2018-02-04T13:09:19.424Z,3.1
2018-02-04T13:10:20.802Z,3.1
2018-02-04T13:11:22.230Z,3.1
2018-02-04T13:12:23.881Z,3.1
2018-02-04T13:13:25.339Z,3.2
2018-02-04T13:14:26.763Z,3.1
2018-02-04T13:15:28.317Z,2.9
2018-02-04T13:16:29.871Z,3.2
2018-02-04T13:17:31.408Z,3.2
2018-02-04T13:18:33.020Z,3.3
2018-02-04T13:19:34.496Z,3.4
2018-02-04T13:20:35.913Z,3.4
2018-02-04T13:21:37.403Z,3.4
2018-02-04T13:22:38.908Z,3.3
2018-02-04T13:23:40.288Z,3.3
2018-02-04T13:24:41.694Z,3.4
2018-02-04T13:25:43.092Z,3.2
2018-02-04T13:26:44.543Z,3.3
2018-02-04T13:27:46.020Z,3.4
2018-02-04T13:28:47.457Z,3.3
2018-02-04T13:29:48.871Z,3.4
2018-02-04T13:30:50.307Z,3.4
2018-02-04T13:31:51.704Z,3.3
2018-02-04T13:32:53.119Z,3.2
2018-02-04T13:33:54.529Z,3.3
2018-02-04T13:34:55.929Z,3.5
2018-02-04T13:35:57.330Z,3.6
2018-02-04T13:36:58.746Z,3.7
2018-02-04T13:38:00.191Z,3.7
2018-02-04T13:39:01.622Z,3.8
2018-02-04T13:40:03.074Z,4.0
2018-02-04T13:41:04.491Z,4.0
2018-02-04T13:42:05.902Z,4.0
2018-02-04T13:43:07.299Z,4.2
2018-02-04T13:44:08.723Z,4.3
2018-02-04T13:45:10.186Z,4.3
2018-02-04T13:46:11.557Z,4.3
2018-02-04T13:47:13.150Z,4.3
2018-02-04T13:48:14.608Z,4.3
2018-02-04T13:49:16.038Z,4.4
2018-02-04T13:50:17.498Z,4.4
2018-02-04T13:51:18.942Z,4.7
2018-02-04T13:52:20.427Z,5.0
2018-02-04T13:53:21.914Z,5.5
2018-02-04T13:54:23.325Z,5.6
2018-02-04T13:55:24.730Z,5.3
2018-02-04T13:56:26.146Z,5.5
2018-02-04T13:57:27.609Z,5.6
2018-02-04T13:58:29.085Z,5.7
2018-02-04T13:59:30.481Z,5.8
2018-02-04T14:00:31.887Z,5.6
2018-02-04T14:01:33.376Z,5.7
2018-02-04T14:02:34.826Z,5.7
2018-02-04T14:03:36.214Z,5.7
2018-02-04T14:04:37.694Z,5.6